Fort Saint John, Canada
Current Conditions -  °F | °C
As of 8:00 AM on Sunday 23 Nov 2014 (Local Time) from CYXJ Reporting Station
Broken Clouds Broken Clouds  
Wind Chill:   Ceiling: 22000
Heat Index:   Visibility: 15mi
Dew Point: -4°   Wind: 3mph
Humidity: 78%   Direction: 180°S
Pressure: 29.62"   Gusts: NA
Location:  56.25°N, 120.85°W
Report Text: CYXJ 231500Z 18003KT 15SM SCT170 BKN220 M17/M20 A2962 RMK AC3CI3 SLP091
Loading
Personal Weather Stations






























Interactive Weather Map New forecast layout! Learn more

10-Day Weather Forecast

Advertisements
Track Severe Weather on mobile